MDT,Max TemperatureF,Mean TemperatureF,Min TemperatureF,Max Dew PointF,MeanDew PointF,Min DewpointF,Max Humidity, Mean Humidity, Min Humidity, Max Sea Level PressureIn, Mean Sea Level PressureIn, Min Sea Level PressureIn, Max VisibilityMiles, Mean VisibilityMiles, Min VisibilityMiles, Max Wind SpeedMPH, Mean Wind SpeedMPH, Max Gust SpeedMPH,PrecipitationIn, CloudCover, Events, WindDirDegrees
2012-9-1,90,76,63,54,42,33,57,32,10,30.07,30.00,29.92,10,10,5,32,7,46,0.00,2,,31
2012-9-2,89,74,60,51,48,44,67,39,15,30.10,30.02,29.96,10,10,10,15,6,21,0.00,0,,299
2012-9-3,91,77,63,49,42,27,58,29,6,30.07,29.99,29.93,10,10,10,20,8,26,0.00,1,,296
2012-9-4,91,73,55,43,39,30,51,28,6,30.08,30.00,29.92,10,10,7,23,8,39,0.00,0,,306
2012-9-5,91,77,63,43,30,16,40,19,4,30.01,29.93,29.85,10,10,10,16,7,20,0.00,2,,276
2012-9-6,93,72,52,29,24,17,32,15,4,30.01,29.93,29.85,10,10,10,15,6,,0.00,0,,25
2012-9-7,91,74,57,45,35,27,44,22,6,30.01,29.94,29.88,10,10,10,21,7,30,0.00,0,,304
2012-9-8,82,72,63,48,42,28,54,33,13,30.19,30.10,30.01,10,10,10,17,10,24,0.00,1,,104
2012-9-9,84,69,54,48,42,35,69,38,10,30.21,30.11,30.00,10,10,10,13,7,20,0.00,1,,121
2012-9-10,87,73,59,50,45,38,58,39,10,30.08,29.99,29.89,10,10,10,16,8,18,0.00,0,,151
2012-9-11,80,70,60,56,51,46,86,56,29,30.10,29.97,29.91,10,10,10,16,5,34,0.01,5,Rain,314
2012-9-12,77,66,55,58,55,51,100,79,34,30.21,30.07,29.95,10,10,9,15,5,22,0.31,6,Rain-Thunderstorm,255
2012-9-13,77,62,48,54,47,38,100,64,20,30.34,30.26,30.16,10,10,10,9,4,,0.00,1,,79
2012-9-14,75,62,51,48,40,31,80,46,13,30.39,30.29,30.21,10,10,10,10,7,,0.00,0,,137
2012-9-15,82,64,46,44,35,25,74,36,6,30.28,30.16,30.04,10,10,10,16,7,23,0.00,0,,191
2012-9-16,87,66,44,37,25,10,58,25,4,30.13,30.04,29.96,10,10,10,18,7,26,0.00,0,,294
2012-9-17,84,65,46,32,23,9,51,20,4,30.03,29.96,29.89,10,10,10,22,8,28,0.00,0,,350
2012-9-18,82,64,45,36,23,14,46,23,4,30.19,30.10,30.04,10,10,10,14,6,22,0.00,0,,27
2012-9-19,84,63,42,31,18,4,50,21,4,30.17,30.10,30.03,10,10,10,16,6,23,0.00,0,,55
2012-9-20,84,62,41,25,17,11,40,17,4,30.14,30.06,29.99,10,10,10,20,7,28,0.00,0,,354
2012-9-21,84,64,44,28,16,7,42,18,4,30.15,30.07,30.00,10,10,10,10,5,,0.00,0,,69
2012-9-22,87,66,46,29,19,13,41,19,4,30.21,30.11,30.05,10,10,10,12,7,,0.00,0,,56
2012-9-23,86,70,53,29,25,19,37,20,4,30.19,30.09,30.04,10,10,10,15,6,22,0.00,0,,67
2012-9-24,75,64,54,51,39,27,86,42,18,30.17,30.03,29.95,10,10,4,24,6,43,0.02,4,Rain-Thunderstorm,92
2012-9-25,73,62,51,50,46,38,89,62,21,30.08,29.97,29.88,10,10,9,17,7,37,0.03,3,Rain,56
2012-9-26,73,62,51,51,46,36,92,63,24,30.12,30.02,29.94,10,10,9,23,9,36,0.16,5,Rain-Thunderstorm,53
2012-9-27,75,60,46,44,39,29,86,49,11,30.14,30.07,30.02,10,10,10,14,6,24,0.00,1,,342
2012-9-28,77,60,42,39,34,28,80,41,9,30.13,30.05,29.97,10,10,10,10,5,,0.00,0,,20
2012-9-29,79,62,45,46,35,26,66,38,7,30.14,30.06,29.98,10,10,10,21,6,28,0.00,0,,339
2012-9-30,82,62,43,37,28,19,65,30,4,30.14,30.05,29.95,10,10,10,23,8,32,0.00,0,,337